sensor_id;sensor_type;location;lat;lon;timestamp;pressure;altitude;pressure_sealevel;temperature;humidity
66560;BME280;53413;49.878;8.142;2022-08-21T00:00:32;100064.56;;;15.69;63.43
66560;BME280;53413;49.878;8.142;2022-08-21T00:03:04;100060.94;;;15.70;63.50
66560;BME280;53413;49.878;8.142;2022-08-21T00:05:31;100054.91;;;15.68;63.47
66560;BME280;53413;49.878;8.142;2022-08-21T00:07:57;100060.28;;;15.67;64.09
66560;BME280;53413;49.878;8.142;2022-08-21T00:10:23;100055.94;;;15.66;63.92
66560;BME280;53413;49.878;8.142;2022-08-21T00:12:49;100049.88;;;15.64;63.98
66560;BME280;53413;49.878;8.142;2022-08-21T00:15:22;100051.69;;;15.63;62.91
66560;BME280;53413;49.878;8.142;2022-08-21T00:17:47;100047.34;;;15.62;62.62
66560;BME280;53413;49.878;8.142;2022-08-21T00:20:15;100054.31;;;15.63;62.25
66560;BME280;53413;49.878;8.142;2022-08-21T00:22:41;100052.63;;;15.62;63.36
66560;BME280;53413;49.878;8.142;2022-08-21T00:25:07;100054.50;;;15.60;63.49
66560;BME280;53413;49.878;8.142;2022-08-21T00:27:33;100055.38;;;15.61;62.68
66560;BME280;53413;49.878;8.142;2022-08-21T00:29:59;100047.44;;;15.61;62.37
66560;BME280;53413;49.878;8.142;2022-08-21T00:32:26;100041.50;;;15.57;62.38
66560;BME280;53413;49.878;8.142;2022-08-21T00:34:52;100046.00;;;15.55;62.93
66560;BME280;53413;49.878;8.142;2022-08-21T00:37:18;100045.34;;;15.51;62.87
66560;BME280;53413;49.878;8.142;2022-08-21T00:39:44;100048.00;;;15.51;63.34
66560;BME280;53413;49.878;8.142;2022-08-21T00:42:11;100041.84;;;15.51;64.29
66560;BME280;53413;49.878;8.142;2022-08-21T00:44:41;100049.59;;;15.54;64.04
66560;BME280;53413;49.878;8.142;2022-08-21T00:47:07;100052.13;;;15.55;64.46
66560;BME280;53413;49.878;8.142;2022-08-21T00:49:33;100045.63;;;15.61;64.36
66560;BME280;53413;49.878;8.142;2022-08-21T00:52:00;100043.75;;;15.63;64.11
66560;BME280;53413;49.878;8.142;2022-08-21T00:54:27;100042.72;;;15.66;64.19
66560;BME280;53413;49.878;8.142;2022-08-21T00:56:59;100038.47;;;15.63;64.51
66560;BME280;53413;49.878;8.142;2022-08-21T00:59:26;100033.38;;;15.60;64.07
66560;BME280;53413;49.878;8.142;2022-08-21T01:01:53;100041.28;;;15.60;64.31
66560;BME280;53413;49.878;8.142;2022-08-21T01:04:19;100031.78;;;15.58;64.43
66560;BME280;53413;49.878;8.142;2022-08-21T01:06:44;100038.94;;;15.55;64.62
66560;BME280;53413;49.878;8.142;2022-08-21T01:09:11;100030.34;;;15.52;64.67
66560;BME280;53413;49.878;8.142;2022-08-21T01:11:36;100036.66;;;15.49;64.97
66560;BME280;53413;49.878;8.142;2022-08-21T01:14:02;100032.38;;;15.47;64.73
66560;BME280;53413;49.878;8.142;2022-08-21T01:16:28;100030.69;;;15.46;64.62
66560;BME280;53413;49.878;8.142;2022-08-21T01:18:54;100032.59;;;15.44;65.11
66560;BME280;53413;49.878;8.142;2022-08-21T01:21:25;100037.16;;;15.40;64.91
66560;BME280;53413;49.878;8.142;2022-08-21T01:23:54;100027.66;;;15.37;65.34
66560;BME280;53413;49.878;8.142;2022-08-21T01:26:27;100027.81;;;15.34;65.35
66560;BME280;53413;49.878;8.142;2022-08-21T01:29:03;100026.31;;;15.30;65.62
66560;BME280;53413;49.878;8.142;2022-08-21T01:31:30;100025.66;;;15.27;64.92
66560;BME280;53413;49.878;8.142;2022-08-21T01:33:56;100029.22;;;15.26;65.44
66560;BME280;53413;49.878;8.142;2022-08-21T01:36:23;100035.50;;;15.23;65.63
66560;BME280;53413;49.878;8.142;2022-08-21T01:38:49;100027.78;;;15.20;66.03
66560;BME280;53413;49.878;8.142;2022-08-21T01:41:15;100028.88;;;15.16;65.92
66560;BME280;53413;49.878;8.142;2022-08-21T01:43:42;100031.53;;;15.16;66.33
66560;BME280;53413;49.878;8.142;2022-08-21T01:46:08;100034.34;;;15.13;66.38
66560;BME280;53413;49.878;8.142;2022-08-21T01:48:34;100025.75;;;15.09;66.16
66560;BME280;53413;49.878;8.142;2022-08-21T01:51:00;100027.56;;;15.08;66.18
66560;BME280;53413;49.878;8.142;2022-08-21T01:53:26;100036.22;;;15.11;66.22
66560;BME280;53413;49.878;8.142;2022-08-21T01:55:51;100020.38;;;15.11;66.59
66560;BME280;53413;49.878;8.142;2022-08-21T01:58:16;100017.84;;;15.09;66.47
66560;BME280;53413;49.878;8.142;2022-08-21T02:00:42;100017.00;;;15.08;66.29
66560;BME280;53413;49.878;8.142;2022-08-21T02:03:08;100023.22;;;15.07;66.71
66560;BME280;53413;49.878;8.142;2022-08-21T02:05:33;100022.34;;;15.07;66.94
66560;BME280;53413;49.878;8.142;2022-08-21T02:07:58;100024.31;;;15.03;67.19
66560;BME280;53413;49.878;8.142;2022-08-21T02:10:27;100018.19;;;15.03;67.22
66560;BME280;53413;49.878;8.142;2022-08-21T02:12:53;100019.13;;;15.02;67.37
66560;BME280;53413;49.878;8.142;2022-08-21T02:15:19;100020.13;;;14.99;67.30
66560;BME280;53413;49.878;8.142;2022-08-21T02:17:48;100021.06;;;14.98;67.03
66560;BME280;53413;49.878;8.142;2022-08-21T02:20:24;100016.66;;;14.99;67.63
66560;BME280;53413;49.878;8.142;2022-08-21T02:22:50;100019.41;;;14.97;68.07
66560;BME280;53413;49.878;8.142;2022-08-21T02:25:17;100011.47;;;14.97;67.21
66560;BME280;53413;49.878;8.142;2022-08-21T02:27:45;100015.78;;;14.98;67.64
66560;BME280;53413;49.878;8.142;2022-08-21T02:30:19;100019.41;;;14.97;67.58
66560;BME280;53413;49.878;8.142;2022-08-21T02:32:45;100020.34;;;14.96;67.48
66560;BME280;53413;49.878;8.142;2022-08-21T02:35:11;100021.44;;;14.92;67.66
66560;BME280;53413;49.878;8.142;2022-08-21T02:37:55;100022.38;;;14.91;67.64
66560;BME280;53413;49.878;8.142;2022-08-21T02:40:24;100010.19;;;14.88;67.17
66560;BME280;53413;49.878;8.142;2022-08-21T02:42:50;100020.75;;;14.88;67.67
66560;BME280;53413;49.878;8.142;2022-08-21T02:45:16;100018.19;;;14.87;67.77
66560;BME280;53413;49.878;8.142;2022-08-21T02:47:53;100015.53;;;14.87;67.89
66560;BME280;53413;49.878;8.142;2022-08-21T02:50:27;100020.25;;;14.82;67.90
66560;BME280;53413;49.878;8.142;2022-08-21T02:52:54;100013.59;;;14.74;68.05
66560;BME280;53413;49.878;8.142;2022-08-21T02:55:20;100016.44;;;14.71;68.27
66560;BME280;53413;49.878;8.142;2022-08-21T02:57:47;100020.06;;;14.69;68.19
66560;BME280;53413;49.878;8.142;2022-08-21T03:00:13;100022.78;;;14.67;68.35
66560;BME280;53413;49.878;8.142;2022-08-21T03:02:39;100019.34;;;14.65;68.26
66560;BME280;53413;49.878;8.142;2022-08-21T03:05:07;100021.16;;;14.65;68.57
66560;BME280;53413;49.878;8.142;2022-08-21T03:07:33;100026.34;;;14.66;68.46
66560;BME280;53413;49.878;8.142;2022-08-21T03:09:59;100027.25;;;14.65;68.55
66560;BME280;53413;49.878;8.142;2022-08-21T03:12:25;100017.66;;;14.64;68.12
66560;BME280;53413;49.878;8.142;2022-08-21T03:14:50;100021.06;;;14.66;68.36
66560;BME280;53413;49.878;8.142;2022-08-21T03:17:16;100013.31;;;14.63;68.57
66560;BME280;53413;49.878;8.142;2022-08-21T03:19:41;100015.19;;;14.61;68.68
66560;BME280;53413;49.878;8.142;2022-08-21T03:22:06;100006.59;;;14.57;69.10
66560;BME280;53413;49.878;8.142;2022-08-21T03:24:32;100007.63;;;14.55;68.80
66560;BME280;53413;49.878;8.142;2022-08-21T03:26:57;100006.69;;;14.56;68.58
66560;BME280;53413;49.878;8.142;2022-08-21T03:29:23;100003.22;;;14.55;69.24
66560;BME280;53413;49.878;8.142;2022-08-21T03:31:48;100007.78;;;14.52;69.39
66560;BME280;53413;49.878;8.142;2022-08-21T03:34:14;100008.81;;;14.49;69.59
66560;BME280;53413;49.878;8.142;2022-08-21T03:36:39;100002.84;;;14.45;69.61
66560;BME280;53413;49.878;8.142;2022-08-21T03:39:05;100008.28;;;14.42;69.71
66560;BME280;53413;49.878;8.142;2022-08-21T03:41:30;100010.91;;;14.42;69.30
66560;BME280;53413;49.878;8.142;2022-08-21T03:43:56;100013.41;;;14.45;69.53
66560;BME280;53413;49.878;8.142;2022-08-21T03:46:21;100011.53;;;14.47;69.45
66560;BME280;53413;49.878;8.142;2022-08-21T03:48:47;100011.53;;;14.47;69.28
66560;BME280;53413;49.878;8.142;2022-08-21T03:51:12;100012.47;;;14.46;69.20
66560;BME280;53413;49.878;8.142;2022-08-21T03:53:38;100011.69;;;14.44;69.22
66560;BME280;53413;49.878;8.142;2022-08-21T03:56:04;100022.34;;;14.43;69.19
66560;BME280;53413;49.878;8.142;2022-08-21T03:58:30;100012.78;;;14.40;69.49
66560;BME280;53413;49.878;8.142;2022-08-21T04:00:57;100023.41;;;14.39;69.96
66560;BME280;53413;49.878;8.142;2022-08-21T04:03:23;100025.28;;;14.37;69.70
66560;BME280;53413;49.878;8.142;2022-08-21T04:05:49;100020.00;;;14.37;69.99
66560;BME280;53413;49.878;8.142;2022-08-21T04:08:16;100025.19;;;14.38;69.73
66560;BME280;53413;49.878;8.142;2022-08-21T04:10:45;100025.28;;;14.37;69.91
66560;BME280;53413;49.878;8.142;2022-08-21T04:13:11;100031.44;;;14.37;70.20
66560;BME280;53413;49.878;8.142;2022-08-21T04:15:37;100015.59;;;14.37;70.48
66560;BME280;53413;49.878;8.142;2022-08-21T04:18:03;100028.84;;;14.36;70.69
66560;BME280;53413;49.878;8.142;2022-08-21T04:20:29;100023.66;;;14.34;70.91
66560;BME280;53413;49.878;8.142;2022-08-21T04:22:55;100027.16;;;14.35;70.61
66560;BME280;53413;49.878;8.142;2022-08-21T04:25:22;100028.84;;;14.36;70.70
66560;BME280;53413;49.878;8.142;2022-08-21T04:27:48;100030.66;;;14.35;70.87
66560;BME280;53413;49.878;8.142;2022-08-21T04:30:14;100039.41;;;14.36;70.62
66560;BME280;53413;49.878;8.142;2022-08-21T04:32:45;100044.59;;;14.37;70.62
66560;BME280;53413;49.878;8.142;2022-08-21T04:35:12;100042.81;;;14.38;70.75
66560;BME280;53413;49.878;8.142;2022-08-21T04:37:37;100048.75;;;14.41;71.16
66560;BME280;53413;49.878;8.142;2022-08-21T04:40:04;100045.97;;;14.44;70.55
66560;BME280;53413;49.878;8.142;2022-08-21T04:42:30;100053.53;;;14.51;70.30
66560;BME280;53413;49.878;8.142;2022-08-21T04:44:55;100051.50;;;14.56;70.14
66560;BME280;53413;49.878;8.142;2022-08-21T04:47:21;100047.94;;;14.57;70.33
66560;BME280;53413;49.878;8.142;2022-08-21T04:49:47;100058.31;;;14.60;70.10
66560;BME280;53413;49.878;8.142;2022-08-21T04:52:17;100053.06;;;14.60;70.25
66560;BME280;53413;49.878;8.142;2022-08-21T04:54:45;100052.69;;;14.66;69.95
66560;BME280;53413;49.878;8.142;2022-08-21T04:57:11;100057.50;;;14.75;69.34
66560;BME280;53413;49.878;8.142;2022-08-21T04:59:46;100055.31;;;14.84;68.92
66560;BME280;53413;49.878;8.142;2022-08-21T05:02:13;100043.56;;;14.89;68.92
66560;BME280;53413;49.878;8.142;2022-08-21T05:04:44;100052.94;;;14.95;69.05
66560;BME280;53413;49.878;8.142;2022-08-21T05:07:15;100058.44;;;15.06;68.24
66560;BME280;53413;49.878;8.142;2022-08-21T05:09:41;100056.22;;;15.15;67.97
66560;BME280;53413;49.878;8.142;2022-08-21T05:12:07;100056.63;;;15.23;67.62
66560;BME280;53413;49.878;8.142;2022-08-21T05:14:33;100056.13;;;15.32;67.48
66560;BME280;53413;49.878;8.142;2022-08-21T05:16:58;100060.75;;;15.43;67.14
66560;BME280;53413;49.878;8.142;2022-08-21T05:19:24;100061.84;;;15.55;66.59
66560;BME280;53413;49.878;8.142;2022-08-21T05:21:50;100061.13;;;15.67;66.72
66560;BME280;53413;49.878;8.142;2022-08-21T05:24:15;100067.41;;;15.81;66.27
66560;BME280;53413;49.878;8.142;2022-08-21T05:26:41;100063.09;;;15.94;66.43
66560;BME280;53413;49.878;8.142;2022-08-21T05:29:06;100062.28;;;16.08;65.89
66560;BME280;53413;49.878;8.142;2022-08-21T05:31:32;100058.91;;;16.21;65.54
66560;BME280;53413;49.878;8.142;2022-08-21T05:33:57;100057.09;;;16.36;64.92
66560;BME280;53413;49.878;8.142;2022-08-21T05:36:23;100064.16;;;16.50;65.12
66560;BME280;53413;49.878;8.142;2022-08-21T05:38:48;100060.69;;;16.64;64.18
66560;BME280;53413;49.878;8.142;2022-08-21T05:41:13;100061.59;;;16.77;63.91
66560;BME280;53413;49.878;8.142;2022-08-21T05:43:39;100064.19;;;16.91;63.72
66560;BME280;53413;49.878;8.142;2022-08-21T05:46:06;100065.78;;;17.08;62.84
66560;BME280;53413;49.878;8.142;2022-08-21T05:48:33;100058.66;;;17.23;62.50
66560;BME280;53413;49.878;8.142;2022-08-21T05:51:05;100059.34;;;17.40;61.86
66560;BME280;53413;49.878;8.142;2022-08-21T05:53:30;100060.97;;;17.56;61.64
66560;BME280;53413;49.878;8.142;2022-08-21T05:55:56;100066.22;;;17.70;61.07
66560;BME280;53413;49.878;8.142;2022-08-21T05:58:21;100051.81;;;17.87;60.28
66560;BME280;53413;49.878;8.142;2022-08-21T06:00:49;100062.03;;;18.06;59.74
66560;BME280;53413;49.878;8.142;2022-08-21T06:03:24;100064.34;;;18.24;59.14
66560;BME280;53413;49.878;8.142;2022-08-21T06:05:50;100065.09;;;18.39;58.57
66560;BME280;53413;49.878;8.142;2022-08-21T06:08:17;100068.97;;;18.59;58.02
66560;BME280;53413;49.878;8.142;2022-08-21T06:10:44;100063.41;;;18.88;57.37
66560;BME280;53413;49.878;8.142;2022-08-21T06:13:10;100062.25;;;19.16;56.80
66560;BME280;53413;49.878;8.142;2022-08-21T06:15:37;100070.69;;;20.17;54.40
66560;BME280;53413;49.878;8.142;2022-08-21T06:18:02;100057.53;;;24.32;44.40
66560;BME280;53413;49.878;8.142;2022-08-21T06:20:28;100054.13;;;28.30;36.32
66560;BME280;53413;49.878;8.142;2022-08-21T06:22:53;100058.13;;;30.95;31.69
66560;BME280;53413;49.878;8.142;2022-08-21T06:25:19;100068.63;;;33.38;28.75
66560;BME280;53413;49.878;8.142;2022-08-21T06:27:45;100064.59;;;34.93;26.50
66560;BME280;53413;49.878;8.142;2022-08-21T06:30:11;100070.25;;;36.93;24.29
66560;BME280;53413;49.878;8.142;2022-08-21T06:32:37;100070.31;;;38.59;22.25
66560;BME280;53413;49.878;8.142;2022-08-21T06:35:04;100065.25;;;39.09;21.68
66560;BME280;53413;49.878;8.142;2022-08-21T06:37:30;100067.41;;;40.31;20.44
66560;BME280;53413;49.878;8.142;2022-08-21T06:39:56;100062.25;;;40.85;19.92
66560;BME280;53413;49.878;8.142;2022-08-21T06:42:21;100063.75;;;41.63;19.51
66560;BME280;53413;49.878;8.142;2022-08-21T06:44:47;100062.09;;;42.05;18.24
66560;BME280;53413;49.878;8.142;2022-08-21T06:47:13;100058.56;;;43.04;17.55
66560;BME280;53413;49.878;8.142;2022-08-21T06:49:38;100059.69;;;43.44;17.04
66560;BME280;53413;49.878;8.142;2022-08-21T06:52:08;100055.28;;;43.38;16.91
66560;BME280;53413;49.878;8.142;2022-08-21T06:54:35;100061.34;;;43.61;17.62
66560;BME280;53413;49.878;8.142;2022-08-21T06:57:01;100058.09;;;44.35;16.77
66560;BME280;53413;49.878;8.142;2022-08-21T06:59:26;100055.91;;;44.87;16.01
66560;BME280;53413;49.878;8.142;2022-08-21T07:01:51;100059.66;;;45.65;15.50
66560;BME280;53413;49.878;8.142;2022-08-21T07:04:17;100066.72;;;46.25;15.29
66560;BME280;53413;49.878;8.142;2022-08-21T07:06:43;100058.63;;;47.25;14.34
66560;BME280;53413;49.878;8.142;2022-08-21T07:09:08;100058.56;;;47.91;14.02
66560;BME280;53413;49.878;8.142;2022-08-21T07:11:36;100055.75;;;47.77;14.14
66560;BME280;53413;49.878;8.142;2022-08-21T07:14:02;100053.78;;;48.33;13.88
66560;BME280;53413;49.878;8.142;2022-08-21T07:16:28;100051.66;;;48.02;13.68
66560;BME280;53413;49.878;8.142;2022-08-21T07:18:53;100049.41;;;48.04;13.79
66560;BME280;53413;49.878;8.142;2022-08-21T07:21:18;100049.19;;;48.65;13.29
66560;BME280;53413;49.878;8.142;2022-08-21T07:23:47;100056.59;;;48.93;12.81
66560;BME280;53413;49.878;8.142;2022-08-21T07:26:14;100053.25;;;49.05;13.03
66560;BME280;53413;49.878;8.142;2022-08-21T07:28:40;100056.13;;;49.45;12.97
66560;BME280;53413;49.878;8.142;2022-08-21T07:31:05;100054.00;;;49.82;12.58
66560;BME280;53413;49.878;8.142;2022-08-21T07:33:32;100053.78;;;50.10;12.51
66560;BME280;53413;49.878;8.142;2022-08-21T07:35:59;100050.78;;;50.06;12.88
66560;BME280;53413;49.878;8.142;2022-08-21T07:38:25;100050.16;;;51.24;11.99
66560;BME280;53413;49.878;8.142;2022-08-21T07:40:52;100044.16;;;51.91;11.65
66560;BME280;53413;49.878;8.142;2022-08-21T07:43:19;100057.63;;;52.40;11.28
66560;BME280;53413;49.878;8.142;2022-08-21T07:45:46;100049.63;;;51.39;11.57
66560;BME280;53413;49.878;8.142;2022-08-21T07:48:12;100048.72;;;51.65;11.75
66560;BME280;53413;49.878;8.142;2022-08-21T07:50:38;100047.84;;;51.73;11.64
66560;BME280;53413;49.878;8.142;2022-08-21T07:53:04;100041.97;;;51.96;11.55
66560;BME280;53413;49.878;8.142;2022-08-21T07:55:29;100042.97;;;52.43;11.18
66560;BME280;53413;49.878;8.142;2022-08-21T07:57:55;100034.09;;;52.41;10.65
66560;BME280;53413;49.878;8.142;2022-08-21T08:00:23;100034.00;;;52.58;11.46
66560;BME280;53413;49.878;8.142;2022-08-21T08:02:51;100035.13;;;53.24;10.92
66560;BME280;53413;49.878;8.142;2022-08-21T08:05:18;100030.16;;;53.67;10.69
66560;BME280;53413;49.878;8.142;2022-08-21T08:07:44;100027.38;;;54.21;10.93
66560;BME280;53413;49.878;8.142;2022-08-21T08:10:10;100034.78;;;54.54;10.38
66560;BME280;53413;49.878;8.142;2022-08-21T08:12:37;100035.06;;;55.21;10.09
66560;BME280;53413;49.878;8.142;2022-08-21T08:15:07;100027.84;;;54.92;10.02
66560;BME280;53413;49.878;8.142;2022-08-21T08:17:32;100036.84;;;54.28;10.40
66560;BME280;53413;49.878;8.142;2022-08-21T08:19:59;100024.41;;;54.01;10.64
66560;BME280;53413;49.878;8.142;2022-08-21T08:22:28;100029.47;;;54.36;10.53
66560;BME280;53413;49.878;8.142;2022-08-21T08:24:54;100026.34;;;54.66;10.31
66560;BME280;53413;49.878;8.142;2022-08-21T08:27:20;100020.53;;;55.03;9.92
66560;BME280;53413;49.878;8.142;2022-08-21T08:29:46;100024.72;;;55.26;10.00
66560;BME280;53413;49.878;8.142;2022-08-21T08:32:12;100022.97;;;55.21;10.32
66560;BME280;53413;49.878;8.142;2022-08-21T08:34:38;100020.06;;;55.49;10.01
66560;BME280;53413;49.878;8.142;2022-08-21T08:37:06;100016.41;;;54.85;9.96
66560;BME280;53413;49.878;8.142;2022-08-21T08:39:32;100007.97;;;54.40;10.47
66560;BME280;53413;49.878;8.142;2022-08-21T08:44:47;99999.78;;;54.35;9.76
66560;BME280;53413;49.878;8.142;2022-08-21T08:47:16;100001.31;;;53.92;9.64
66560;BME280;53413;49.878;8.142;2022-08-21T08:52:27;99993.69;;;54.05;9.42
66560;BME280;53413;49.878;8.142;2022-08-21T08:55:09;99992.31;;;53.98;9.74
66560;BME280;53413;49.878;8.142;2022-08-21T08:57:41;99993.47;;;54.38;9.68
66560;BME280;53413;49.878;8.142;2022-08-21T09:00:12;99996.53;;;54.90;9.53
66560;BME280;53413;49.878;8.142;2022-08-21T09:02:40;99995.72;;;54.61;9.30
66560;BME280;53413;49.878;8.142;2022-08-21T09:05:07;99992.66;;;53.97;9.72
66560;BME280;53413;49.878;8.142;2022-08-21T09:13:24;99982.16;;;53.81;9.76
66560;BME280;53413;49.878;8.142;2022-08-21T09:19:27;99984.16;;;54.22;9.51
66560;BME280;53413;49.878;8.142;2022-08-21T09:25:03;99986.78;;;54.87;9.26
66560;BME280;53413;49.878;8.142;2022-08-21T09:27:33;99989.66;;;55.35;9.00
66560;BME280;53413;49.878;8.142;2022-08-21T09:29:59;99992.25;;;55.12;9.23
66560;BME280;53413;49.878;8.142;2022-08-21T09:32:30;99985.00;;;53.69;9.85
66560;BME280;53413;49.878;8.142;2022-08-21T09:37:21;99984.19;;;49.87;11.77
66560;BME280;53413;49.878;8.142;2022-08-21T09:39:46;99976.53;;;49.44;12.08
66560;BME280;53413;49.878;8.142;2022-08-21T09:42:22;99974.44;;;50.34;11.58
66560;BME280;53413;49.878;8.142;2022-08-21T09:44:48;99971.16;;;50.49;11.64
66560;BME280;53413;49.878;8.142;2022-08-21T09:47:18;99956.22;;;48.58;12.32
66560;BME280;53413;49.878;8.142;2022-08-21T09:49:44;99954.09;;;47.06;13.45
66560;BME280;53413;49.878;8.142;2022-08-21T09:52:21;99950.44;;;46.78;13.95
66560;BME280;53413;49.878;8.142;2022-08-21T09:54:51;99947.09;;;48.06;13.44
66560;BME280;53413;49.878;8.142;2022-08-21T09:57:28;99944.78;;;48.82;12.67
66560;BME280;53413;49.878;8.142;2022-08-21T10:00:31;99943.16;;;48.21;13.17
66560;BME280;53413;49.878;8.142;2022-08-21T10:05:33;99939.34;;;47.81;13.13
66560;BME280;53413;49.878;8.142;2022-08-21T10:08:00;99936.31;;;48.05;13.09
66560;BME280;53413;49.878;8.142;2022-08-21T10:10:29;99926.28;;;48.54;12.49
66560;BME280;53413;49.878;8.142;2022-08-21T10:13:04;99929.84;;;49.00;12.35
66560;BME280;53413;49.878;8.142;2022-08-21T10:18:20;99933.38;;;46.51;13.72
66560;BME280;53413;49.878;8.142;2022-08-21T10:45:56;99925.66;;;33.90;25.65
66560;BME280;53413;49.878;8.142;2022-08-21T10:52:23;99915.72;;;33.17;25.91
66560;BME280;53413;49.878;8.142;2022-08-21T10:54:54;99907.13;;;32.73;25.89
66560;BME280;53413;49.878;8.142;2022-08-21T10:57:33;99909.63;;;32.06;26.49
66560;BME280;53413;49.878;8.142;2022-08-21T11:00:11;99904.94;;;31.80;27.67
66560;BME280;53413;49.878;8.142;2022-08-21T11:02:58;99901.81;;;31.83;27.03
66560;BME280;53413;49.878;8.142;2022-08-21T11:05:33;99893.69;;;31.83;26.68
66560;BME280;53413;49.878;8.142;2022-08-21T11:08:10;99893.66;;;31.76;27.52
66560;BME280;53413;49.878;8.142;2022-08-21T11:10:42;99892.41;;;31.78;26.97
66560;BME280;53413;49.878;8.142;2022-08-21T11:15:51;99884.63;;;31.33;26.90
66560;BME280;53413;49.878;8.142;2022-08-21T11:21:03;99888.91;;;31.50;27.23
66560;BME280;53413;49.878;8.142;2022-08-21T11:24:04;99892.44;;;31.50;27.17
66560;BME280;53413;49.878;8.142;2022-08-21T11:26:52;99891.66;;;31.56;26.68
66560;BME280;53413;49.878;8.142;2022-08-21T11:35:39;99875.81;;;31.53;26.13
66560;BME280;53413;49.878;8.142;2022-08-21T11:50:45;99859.19;;;31.28;26.99
66560;BME280;53413;49.878;8.142;2022-08-21T11:56:12;99865.13;;;30.88;26.84
66560;BME280;53413;49.878;8.142;2022-08-21T12:01:11;99862.44;;;30.66;27.23
66560;BME280;53413;49.878;8.142;2022-08-21T12:03:40;99840.75;;;30.60;27.38
66560;BME280;53413;49.878;8.142;2022-08-21T12:06:10;99851.47;;;30.75;27.45
66560;BME280;53413;49.878;8.142;2022-08-21T12:08:42;99842.72;;;30.94;27.39
66560;BME280;53413;49.878;8.142;2022-08-21T12:11:20;99849.75;;;31.17;26.45
66560;BME280;53413;49.878;8.142;2022-08-21T12:19:14;99836.50;;;31.00;27.42
66560;BME280;53413;49.878;8.142;2022-08-21T12:22:11;99842.59;;;31.09;27.64
66560;BME280;53413;49.878;8.142;2022-08-21T12:24:45;99842.50;;;31.24;26.69
66560;BME280;53413;49.878;8.142;2022-08-21T12:27:30;99840.13;;;31.43;27.01
66560;BME280;53413;49.878;8.142;2022-08-21T12:30:40;99844.72;;;31.49;26.03
66560;BME280;53413;49.878;8.142;2022-08-21T12:33:22;99841.94;;;31.36;26.35
66560;BME280;53413;49.878;8.142;2022-08-21T12:35:49;99839.16;;;31.22;26.00
66560;BME280;53413;49.878;8.142;2022-08-21T12:43:15;99832.19;;;30.34;27.51
66560;BME280;53413;49.878;8.142;2022-08-21T12:45:46;99834.00;;;30.49;27.60
66560;BME280;53413;49.878;8.142;2022-08-21T12:48:22;99828.59;;;30.49;27.81
66560;BME280;53413;49.878;8.142;2022-08-21T12:51:04;99831.78;;;30.37;27.20
66560;BME280;53413;49.878;8.142;2022-08-21T12:53:40;99826.25;;;30.24;28.56
66560;BME280;53413;49.878;8.142;2022-08-21T12:56:11;99831.28;;;30.49;28.45
66560;BME280;53413;49.878;8.142;2022-08-21T12:58:49;99820.06;;;30.74;27.21
66560;BME280;53413;49.878;8.142;2022-08-21T13:01:43;99819.75;;;31.12;26.06
66560;BME280;53413;49.878;8.142;2022-08-21T13:04:13;99823.84;;;31.36;26.20
66560;BME280;53413;49.878;8.142;2022-08-21T13:06:44;99821.47;;;31.61;26.16
66560;BME280;53413;49.878;8.142;2022-08-21T13:09:16;99817.38;;;31.72;25.35
66560;BME280;53413;49.878;8.142;2022-08-21T13:11:45;99818.16;;;31.66;26.05
66560;BME280;53413;49.878;8.142;2022-08-21T13:14:20;99806.41;;;31.45;25.25
66560;BME280;53413;49.878;8.142;2022-08-21T13:16:53;99811.38;;;31.42;25.53
66560;BME280;53413;49.878;8.142;2022-08-21T13:19:18;99803.41;;;31.33;25.82
66560;BME280;53413;49.878;8.142;2022-08-21T13:21:45;99807.16;;;31.26;26.31
66560;BME280;53413;49.878;8.142;2022-08-21T13:26:40;99804.50;;;31.11;25.91
66560;BME280;53413;49.878;8.142;2022-08-21T13:29:14;99807.53;;;31.23;25.46
66560;BME280;53413;49.878;8.142;2022-08-21T13:31:45;99789.06;;;31.05;25.89
66560;BME280;53413;49.878;8.142;2022-08-21T13:34:11;99802.25;;;30.86;27.10
66560;BME280;53413;49.878;8.142;2022-08-21T13:36:40;99798.78;;;30.92;25.92
66560;BME280;53413;49.878;8.142;2022-08-21T13:39:17;99793.19;;;31.00;25.77
66560;BME280;53413;49.878;8.142;2022-08-21T13:41:46;99790.72;;;30.99;26.00
66560;BME280;53413;49.878;8.142;2022-08-21T13:46:57;99783.63;;;30.98;26.65
66560;BME280;53413;49.878;8.142;2022-08-21T13:49:30;99789.97;;;31.12;25.99
66560;BME280;53413;49.878;8.142;2022-08-21T13:51:56;99782.84;;;31.11;26.09
66560;BME280;53413;49.878;8.142;2022-08-21T13:54:26;99783.03;;;31.02;25.91
66560;BME280;53413;49.878;8.142;2022-08-21T13:56:54;99780.91;;;30.98;25.83
66560;BME280;53413;49.878;8.142;2022-08-21T13:59:28;99775.75;;;31.03;25.62
66560;BME280;53413;49.878;8.142;2022-08-21T14:04:36;99770.34;;;31.03;26.70
66560;BME280;53413;49.878;8.142;2022-08-21T14:07:15;99770.31;;;30.96;26.40
66560;BME280;53413;49.878;8.142;2022-08-21T14:09:43;99768.63;;;30.95;26.53
66560;BME280;53413;49.878;8.142;2022-08-21T14:12:35;99764.31;;;30.73;26.14
66560;BME280;53413;49.878;8.142;2022-08-21T14:15:04;99763.75;;;30.55;27.08
66560;BME280;53413;49.878;8.142;2022-08-21T14:17:37;99760.56;;;30.52;27.02
66560;BME280;53413;49.878;8.142;2022-08-21T14:20:05;99763.41;;;30.65;26.59
66560;BME280;53413;49.878;8.142;2022-08-21T14:22:38;99762.88;;;30.77;26.11
66560;BME280;53413;49.878;8.142;2022-08-21T14:27:32;99760.03;;;30.85;25.57
66560;BME280;53413;49.878;8.142;2022-08-21T14:30:08;99759.81;;;30.86;25.42
66560;BME280;53413;49.878;8.142;2022-08-21T14:32:40;99744.41;;;30.87;25.55
66560;BME280;53413;49.878;8.142;2022-08-21T14:35:06;99745.94;;;30.96;25.45
66560;BME280;53413;49.878;8.142;2022-08-21T14:37:32;99741.75;;;30.94;25.08
66560;BME280;53413;49.878;8.142;2022-08-21T14:39:57;99739.97;;;31.08;25.33
66560;BME280;53413;49.878;8.142;2022-08-21T14:42:24;99739.84;;;31.16;24.92
66560;BME280;53413;49.878;8.142;2022-08-21T14:44:50;99732.56;;;31.23;24.81